sensor_id;sensor_type;location;lat;lon;timestamp;pressure;altitude;pressure_sealevel;temperature;humidity
49723;BME280;43484;43.608;1.458;2023-03-22T00:01:34;99840.44;;;10.69;100.00
49723;BME280;43484;43.608;1.458;2023-03-22T00:04:02;99833.81;;;10.76;100.00
49723;BME280;43484;43.608;1.458;2023-03-22T00:06:28;99842.94;;;10.66;100.00
49723;BME280;43484;43.608;1.458;2023-03-22T00:08:55;99834.25;;;10.61;100.00
49723;BME280;43484;43.608;1.458;2023-03-22T00:11:22;99840.41;;;10.68;100.00
49723;BME280;43484;43.608;1.458;2023-03-22T00:13:51;99836.84;;;10.63;100.00
49723;BME280;43484;43.608;1.458;2023-03-22T00:16:18;99829.13;;;10.61;100.00
49723;BME280;43484;43.608;1.458;2023-03-22T00:18:46;99818.63;;;10.54;100.00
49723;BME280;43484;43.608;1.458;2023-03-22T00:21:14;99817.50;;;10.44;100.00
49723;BME280;43484;43.608;1.458;2023-03-22T00:23:41;99818.19;;;10.39;100.00
49723;BME280;43484;43.608;1.458;2023-03-22T00:26:10;99817.22;;;10.35;100.00
49723;BME280;43484;43.608;1.458;2023-03-22T00:28:36;99813.81;;;10.35;100.00
49723;BME280;43484;43.608;1.458;2023-03-22T00:31:04;99807.72;;;10.31;100.00
49723;BME280;43484;43.608;1.458;2023-03-22T00:33:31;99802.66;;;10.33;100.00
49723;BME280;43484;43.608;1.458;2023-03-22T00:36:09;99802.63;;;10.31;100.00
49723;BME280;43484;43.608;1.458;2023-03-22T00:38:38;99809.34;;;10.28;100.00
49723;BME280;43484;43.608;1.458;2023-03-22T00:41:20;99804.13;;;10.25;100.00
49723;BME280;43484;43.608;1.458;2023-03-22T00:43:48;99796.31;;;10.22;100.00
49723;BME280;43484;43.608;1.458;2023-03-22T00:46:18;99789.47;;;10.21;100.00
49723;BME280;43484;43.608;1.458;2023-03-22T00:48:46;99781.75;;;10.19;100.00
49723;BME280;43484;43.608;1.458;2023-03-22T00:51:13;99784.06;;;10.11;100.00
49723;BME280;43484;43.608;1.458;2023-03-22T00:53:40;99778.00;;;10.08;100.00
49723;BME280;43484;43.608;1.458;2023-03-22T00:56:10;99762.50;;;10.05;100.00
49723;BME280;43484;43.608;1.458;2023-03-22T00:58:40;99757.22;;;9.99;100.00
49723;BME280;43484;43.608;1.458;2023-03-22T01:01:07;99757.94;;;9.95;100.00
49723;BME280;43484;43.608;1.458;2023-03-22T01:03:34;99739.03;;;9.90;100.00
49723;BME280;43484;43.608;1.458;2023-03-22T01:06:01;99731.25;;;9.87;100.00
49723;BME280;43484;43.608;1.458;2023-03-22T01:08:28;99737.19;;;9.84;100.00
49723;BME280;43484;43.608;1.458;2023-03-22T01:10:59;99729.53;;;9.86;100.00
49723;BME280;43484;43.608;1.458;2023-03-22T01:13:27;99724.47;;;9.87;100.00
49723;BME280;43484;43.608;1.458;2023-03-22T01:15:54;99738.72;;;9.79;100.00
49723;BME280;43484;43.608;1.458;2023-03-22T01:18:21;99725.00;;;9.77;100.00
49723;BME280;43484;43.608;1.458;2023-03-22T01:20:48;99724.94;;;9.74;100.00
49723;BME280;43484;43.608;1.458;2023-03-22T01:23:15;99719.00;;;9.77;100.00
49723;BME280;43484;43.608;1.458;2023-03-22T01:25:41;99716.28;;;9.71;100.00
49723;BME280;43484;43.608;1.458;2023-03-22T01:28:08;99712.69;;;9.64;100.00
49723;BME280;43484;43.608;1.458;2023-03-22T01:30:35;99702.38;;;9.63;100.00
49723;BME280;43484;43.608;1.458;2023-03-22T01:33:04;99709.16;;;9.61;100.00
49723;BME280;43484;43.608;1.458;2023-03-22T01:35:34;99698.66;;;9.53;100.00
49723;BME280;43484;43.608;1.458;2023-03-22T01:38:01;99698.28;;;9.41;100.00
49723;BME280;43484;43.608;1.458;2023-03-22T01:40:28;99690.44;;;9.35;100.00
49723;BME280;43484;43.608;1.458;2023-03-22T01:42:55;99684.25;;;9.29;100.00
49723;BME280;43484;43.608;1.458;2023-03-22T01:48:12;99674.66;;;9.22;100.00
49723;BME280;43484;43.608;1.458;2023-03-22T01:50:44;99664.34;;;9.19;100.00
49723;BME280;43484;43.608;1.458;2023-03-22T01:53:12;99661.88;;;9.22;100.00
49723;BME280;43484;43.608;1.458;2023-03-22T01:55:41;99660.19;;;9.22;100.00
49723;BME280;43484;43.608;1.458;2023-03-22T01:58:07;99669.50;;;9.20;100.00
49723;BME280;43484;43.608;1.458;2023-03-22T02:00:34;99668.63;;;9.20;100.00
49723;BME280;43484;43.608;1.458;2023-03-22T02:03:03;99648.25;;;9.23;100.00
49723;BME280;43484;43.608;1.458;2023-03-22T02:05:32;99654.25;;;9.23;100.00
49723;BME280;43484;43.608;1.458;2023-03-22T02:08:00;99650.59;;;9.15;100.00
49723;BME280;43484;43.608;1.458;2023-03-22T02:10:28;99655.66;;;9.14;100.00
49723;BME280;43484;43.608;1.458;2023-03-22T02:13:04;99647.78;;;9.08;100.00
49723;BME280;43484;43.608;1.458;2023-03-22T02:16:00;99650.97;;;9.01;100.00
49723;BME280;43484;43.608;1.458;2023-03-22T02:24:40;99629.31;;;8.89;100.00
49723;BME280;43484;43.608;1.458;2023-03-22T02:43:39;99614.47;;;8.78;100.00
49723;BME280;43484;43.608;1.458;2023-03-22T02:51:46;99590.22;;;8.65;100.00
49723;BME280;43484;43.608;1.458;2023-03-22T02:54:25;99583.22;;;8.60;100.00
49723;BME280;43484;43.608;1.458;2023-03-22T02:57:14;99589.06;;;8.57;100.00
49723;BME280;43484;43.608;1.458;2023-03-22T02:59:42;99577.16;;;8.56;100.00
49723;BME280;43484;43.608;1.458;2023-03-22T03:02:12;99574.41;;;8.50;100.00
49723;BME280;43484;43.608;1.458;2023-03-22T03:04:46;99574.53;;;8.55;100.00
49723;BME280;43484;43.608;1.458;2023-03-22T03:07:17;99569.25;;;8.49;100.00
49723;BME280;43484;43.608;1.458;2023-03-22T03:09:45;99577.81;;;8.51;100.00
49723;BME280;43484;43.608;1.458;2023-03-22T03:12:17;99572.09;;;8.58;100.00
49723;BME280;43484;43.608;1.458;2023-03-22T03:14:44;99577.94;;;8.54;100.00
49723;BME280;43484;43.608;1.458;2023-03-22T03:17:32;99565.22;;;8.55;100.00
49723;BME280;43484;43.608;1.458;2023-03-22T03:25:39;99570.13;;;8.51;100.00
49723;BME280;43484;43.608;1.458;2023-03-22T03:28:17;99567.50;;;8.48;100.00
49723;BME280;43484;43.608;1.458;2023-03-22T03:30:59;99569.16;;;8.47;100.00
49723;BME280;43484;43.608;1.458;2023-03-22T03:33:31;99564.66;;;8.39;100.00
49723;BME280;43484;43.608;1.458;2023-03-22T03:36:01;99560.50;;;8.42;100.00
49723;BME280;43484;43.608;1.458;2023-03-22T03:38:32;99557.91;;;8.41;100.00
49723;BME280;43484;43.608;1.458;2023-03-22T03:41:08;99552.75;;;8.39;100.00
49723;BME280;43484;43.608;1.458;2023-03-22T03:43:37;99547.50;;;8.35;100.00
49723;BME280;43484;43.608;1.458;2023-03-22T03:46:06;99548.16;;;8.29;100.00
49723;BME280;43484;43.608;1.458;2023-03-22T03:48:34;99533.56;;;8.25;100.00
49723;BME280;43484;43.608;1.458;2023-03-22T03:51:02;99528.56;;;8.28;100.00
49723;BME280;43484;43.608;1.458;2023-03-22T03:53:30;99526.75;;;8.26;100.00
49723;BME280;43484;43.608;1.458;2023-03-22T03:55:56;99528.31;;;8.22;100.00
49723;BME280;43484;43.608;1.458;2023-03-22T03:58:23;99530.09;;;8.23;100.00
49723;BME280;43484;43.608;1.458;2023-03-22T04:00:50;99529.13;;;8.21;100.00
49723;BME280;43484;43.608;1.458;2023-03-22T04:03:17;99541.00;;;8.21;100.00
49723;BME280;43484;43.608;1.458;2023-03-22T04:05:44;99537.56;;;8.19;100.00
49723;BME280;43484;43.608;1.458;2023-03-22T04:08:10;99535.97;;;8.22;100.00
49723;BME280;43484;43.608;1.458;2023-03-22T04:10:37;99535.13;;;8.22;100.00
49723;BME280;43484;43.608;1.458;2023-03-22T04:13:04;99536.78;;;8.21;100.00
49723;BME280;43484;43.608;1.458;2023-03-22T04:15:31;99546.81;;;8.15;100.00
49723;BME280;43484;43.608;1.458;2023-03-22T04:17:58;99534.84;;;8.14;100.00
49723;BME280;43484;43.608;1.458;2023-03-22T04:20:25;99536.69;;;8.18;100.00
49723;BME280;43484;43.608;1.458;2023-03-22T04:22:52;99541.69;;;8.15;100.00
49723;BME280;43484;43.608;1.458;2023-03-22T04:25:18;99540.69;;;8.10;100.00
49723;BME280;43484;43.608;1.458;2023-03-22T04:27:48;99560.00;;;8.04;100.00
49723;BME280;43484;43.608;1.458;2023-03-22T04:30:16;99553.94;;;8.00;100.00
49723;BME280;43484;43.608;1.458;2023-03-22T04:32:48;99548.88;;;8.02;100.00
49723;BME280;43484;43.608;1.458;2023-03-22T04:35:15;99549.53;;;7.96;100.00
49723;BME280;43484;43.608;1.458;2023-03-22T04:37:42;99534.50;;;8.04;100.00
49723;BME280;43484;43.608;1.458;2023-03-22T04:40:10;99535.75;;;8.16;100.00
49723;BME280;43484;43.608;1.458;2023-03-22T04:42:42;99552.88;;;8.19;100.00
49723;BME280;43484;43.608;1.458;2023-03-22T04:45:10;99556.88;;;8.12;100.00
49723;BME280;43484;43.608;1.458;2023-03-22T04:47:38;99565.34;;;8.11;100.00
49723;BME280;43484;43.608;1.458;2023-03-22T04:50:05;99560.91;;;8.06;100.00
49723;BME280;43484;43.608;1.458;2023-03-22T04:52:33;99564.94;;;7.99;100.00
49723;BME280;43484;43.608;1.458;2023-03-22T04:54:59;99563.09;;;7.95;100.00
49723;BME280;43484;43.608;1.458;2023-03-22T04:57:26;99548.69;;;7.97;100.00
49723;BME280;43484;43.608;1.458;2023-03-22T04:59:53;99552.84;;;7.94;100.00
49723;BME280;43484;43.608;1.458;2023-03-22T05:02:19;99548.34;;;7.87;100.00
49723;BME280;43484;43.608;1.458;2023-03-22T05:04:46;99551.53;;;7.81;100.00
49723;BME280;43484;43.608;1.458;2023-03-22T05:07:13;99549.53;;;7.73;100.00
49723;BME280;43484;43.608;1.458;2023-03-22T05:09:39;99535.31;;;7.79;100.00
49723;BME280;43484;43.608;1.458;2023-03-22T05:12:06;99538.28;;;7.91;100.00
49723;BME280;43484;43.608;1.458;2023-03-22T05:14:33;99535.44;;;8.07;100.00
49723;BME280;43484;43.608;1.458;2023-03-22T05:16:59;99545.13;;;7.92;100.00
49723;BME280;43484;43.608;1.458;2023-03-22T05:19:26;99543.16;;;7.84;100.00
49723;BME280;43484;43.608;1.458;2023-03-22T05:21:53;99538.16;;;7.87;100.00
49723;BME280;43484;43.608;1.458;2023-03-22T05:24:23;99545.59;;;7.82;100.00
49723;BME280;43484;43.608;1.458;2023-03-22T05:26:50;99546.44;;;7.81;100.00
49723;BME280;43484;43.608;1.458;2023-03-22T05:29:19;99538.78;;;7.81;100.00
49723;BME280;43484;43.608;1.458;2023-03-22T05:31:47;99521.72;;;7.79;100.00
49723;BME280;43484;43.608;1.458;2023-03-22T05:34:13;99516.91;;;7.88;100.00
49723;BME280;43484;43.608;1.458;2023-03-22T05:36:40;99515.94;;;7.84;100.00
49723;BME280;43484;43.608;1.458;2023-03-22T05:39:07;99515.34;;;7.91;100.00
49723;BME280;43484;43.608;1.458;2023-03-22T05:41:34;99515.28;;;7.90;100.00
49723;BME280;43484;43.608;1.458;2023-03-22T05:44:03;99510.75;;;7.81;100.00
49723;BME280;43484;43.608;1.458;2023-03-22T05:46:30;99504.81;;;7.82;100.00
49723;BME280;43484;43.608;1.458;2023-03-22T05:48:56;99504.59;;;7.76;100.00
49723;BME280;43484;43.608;1.458;2023-03-22T05:51:23;99515.78;;;7.80;100.00
49723;BME280;43484;43.608;1.458;2023-03-22T05:53:51;99512.34;;;7.79;100.00
49723;BME280;43484;43.608;1.458;2023-03-22T05:56:19;99513.09;;;7.75;100.00
49723;BME280;43484;43.608;1.458;2023-03-22T05:58:51;99510.50;;;7.74;100.00
49723;BME280;43484;43.608;1.458;2023-03-22T06:01:17;99496.75;;;7.70;100.00
49723;BME280;43484;43.608;1.458;2023-03-22T06:03:47;99502.06;;;7.76;100.00
49723;BME280;43484;43.608;1.458;2023-03-22T06:06:14;99498.97;;;7.85;100.00
49723;BME280;43484;43.608;1.458;2023-03-22T06:08:41;99496.38;;;7.83;100.00
49723;BME280;43484;43.608;1.458;2023-03-22T06:11:08;99497.25;;;7.84;100.00
49723;BME280;43484;43.608;1.458;2023-03-22T06:13:35;99503.03;;;7.80;100.00
49723;BME280;43484;43.608;1.458;2023-03-22T06:16:03;99495.50;;;7.83;100.00
49723;BME280;43484;43.608;1.458;2023-03-22T06:18:31;99493.03;;;7.86;100.00
49723;BME280;43484;43.608;1.458;2023-03-22T06:20:59;99495.72;;;7.89;100.00
49723;BME280;43484;43.608;1.458;2023-03-22T06:23:26;99503.88;;;7.79;100.00
49723;BME280;43484;43.608;1.458;2023-03-22T06:25:52;99515.59;;;7.74;100.00
49723;BME280;43484;43.608;1.458;2023-03-22T06:28:19;99516.00;;;7.86;100.00
49723;BME280;43484;43.608;1.458;2023-03-22T06:30:45;99509.69;;;8.00;100.00
49723;BME280;43484;43.608;1.458;2023-03-22T06:33:12;99519.06;;;8.01;100.00
49723;BME280;43484;43.608;1.458;2023-03-22T06:35:39;99525.03;;;8.01;100.00
49723;BME280;43484;43.608;1.458;2023-03-22T06:38:06;99529.69;;;8.36;100.00
49723;BME280;43484;43.608;1.458;2023-03-22T06:40:32;99556.13;;;8.15;100.00
49723;BME280;43484;43.608;1.458;2023-03-22T06:43:01;99560.38;;;7.91;100.00
49723;BME280;43484;43.608;1.458;2023-03-22T06:45:32;99567.47;;;7.99;100.00
49723;BME280;43484;43.608;1.458;2023-03-22T06:47:59;99574.34;;;8.00;100.00
49723;BME280;43484;43.608;1.458;2023-03-22T06:50:27;99577.03;;;8.05;100.00
49723;BME280;43484;43.608;1.458;2023-03-22T06:52:54;99583.56;;;7.97;100.00
49723;BME280;43484;43.608;1.458;2023-03-22T06:55:21;99578.59;;;8.01;100.00
49723;BME280;43484;43.608;1.458;2023-03-22T06:57:48;99583.16;;;8.10;100.00
49723;BME280;43484;43.608;1.458;2023-03-22T07:00:15;99584.13;;;8.13;100.00
49723;BME280;43484;43.608;1.458;2023-03-22T07:02:42;99599.41;;;8.35;100.00
49723;BME280;43484;43.608;1.458;2023-03-22T07:05:08;99606.09;;;8.32;100.00
49723;BME280;43484;43.608;1.458;2023-03-22T07:07:36;99612.00;;;8.31;100.00
49723;BME280;43484;43.608;1.458;2023-03-22T07:10:03;99614.19;;;8.44;100.00
49723;BME280;43484;43.608;1.458;2023-03-22T07:12:29;99617.47;;;8.41;100.00
49723;BME280;43484;43.608;1.458;2023-03-22T07:14:56;99626.56;;;8.58;100.00
49723;BME280;43484;43.608;1.458;2023-03-22T07:17:23;99632.56;;;8.59;100.00
49723;BME280;43484;43.608;1.458;2023-03-22T07:19:49;99635.91;;;8.58;100.00
49723;BME280;43484;43.608;1.458;2023-03-22T07:22:16;99625.03;;;8.63;100.00
49723;BME280;43484;43.608;1.458;2023-03-22T07:24:43;99625.56;;;8.78;100.00
49723;BME280;43484;43.608;1.458;2023-03-22T07:27:22;99623.22;;;8.86;100.00
49723;BME280;43484;43.608;1.458;2023-03-22T07:29:49;99622.75;;;8.98;100.00
49723;BME280;43484;43.608;1.458;2023-03-22T07:32:15;99634.78;;;9.00;100.00
49723;BME280;43484;43.608;1.458;2023-03-22T07:34:42;99644.28;;;9.04;100.00
49723;BME280;43484;43.608;1.458;2023-03-22T07:37:09;99629.50;;;9.21;100.00
49723;BME280;43484;43.608;1.458;2023-03-22T07:39:36;99626.81;;;9.18;100.00
49723;BME280;43484;43.608;1.458;2023-03-22T07:42:03;99634.38;;;9.15;100.00
49723;BME280;43484;43.608;1.458;2023-03-22T07:44:29;99627.72;;;9.20;100.00
49723;BME280;43484;43.608;1.458;2023-03-22T07:46:56;99625.44;;;9.27;100.00
49723;BME280;43484;43.608;1.458;2023-03-22T07:49:23;99625.56;;;9.32;100.00
49723;BME280;43484;43.608;1.458;2023-03-22T07:51:49;99613.88;;;9.40;100.00
49723;BME280;43484;43.608;1.458;2023-03-22T07:54:16;99609.97;;;9.51;100.00
49723;BME280;43484;43.608;1.458;2023-03-22T07:56:58;99620.31;;;9.55;100.00
49723;BME280;43484;43.608;1.458;2023-03-22T07:59:25;99630.69;;;9.60;100.00
49723;BME280;43484;43.608;1.458;2023-03-22T08:01:51;99651.69;;;9.50;100.00
49723;BME280;43484;43.608;1.458;2023-03-22T08:04:18;99666.47;;;9.60;100.00
49723;BME280;43484;43.608;1.458;2023-03-22T08:06:47;99681.97;;;9.64;100.00
49723;BME280;43484;43.608;1.458;2023-03-22T08:09:15;99670.25;;;9.71;100.00
49723;BME280;43484;43.608;1.458;2023-03-22T08:11:42;99678.25;;;9.83;100.00
49723;BME280;43484;43.608;1.458;2023-03-22T08:14:09;99674.84;;;9.82;100.00
49723;BME280;43484;43.608;1.458;2023-03-22T08:16:35;99672.75;;;9.97;100.00
49723;BME280;43484;43.608;1.458;2023-03-22T08:19:03;99674.75;;;10.07;100.00
49723;BME280;43484;43.608;1.458;2023-03-22T08:21:30;99670.03;;;10.21;100.00
49723;BME280;43484;43.608;1.458;2023-03-22T08:23:57;99684.75;;;10.28;100.00
49723;BME280;43484;43.608;1.458;2023-03-22T08:26:23;99684.19;;;10.38;100.00
49723;BME280;43484;43.608;1.458;2023-03-22T08:28:50;99690.38;;;10.46;100.00
49723;BME280;43484;43.608;1.458;2023-03-22T08:31:17;99684.72;;;10.58;100.00
49723;BME280;43484;43.608;1.458;2023-03-22T08:33:44;99682.44;;;10.68;100.00
49723;BME280;43484;43.608;1.458;2023-03-22T08:36:14;99689.31;;;10.69;100.00
49723;BME280;43484;43.608;1.458;2023-03-22T08:38:42;99685.22;;;10.77;100.00
49723;BME280;43484;43.608;1.458;2023-03-22T08:41:11;99669.94;;;10.80;100.00
49723;BME280;43484;43.608;1.458;2023-03-22T08:43:38;99673.44;;;10.84;100.00
49723;BME280;43484;43.608;1.458;2023-03-22T08:46:04;99679.56;;;10.89;100.00
49723;BME280;43484;43.608;1.458;2023-03-22T08:48:31;99683.31;;;11.01;100.00
49723;BME280;43484;43.608;1.458;2023-03-22T08:50:59;99683.38;;;11.04;100.00
49723;BME280;43484;43.608;1.458;2023-03-22T08:53:26;99666.47;;;11.12;100.00
49723;BME280;43484;43.608;1.458;2023-03-22T08:55:53;99684.53;;;11.17;100.00
49723;BME280;43484;43.608;1.458;2023-03-22T08:58:23;99670.97;;;11.21;100.00
49723;BME280;43484;43.608;1.458;2023-03-22T09:00:50;99674.56;;;11.29;100.00
49723;BME280;43484;43.608;1.458;2023-03-22T09:03:17;99668.09;;;11.43;100.00
49723;BME280;43484;43.608;1.458;2023-03-22T09:05:43;99673.53;;;11.57;100.00
49723;BME280;43484;43.608;1.458;2023-03-22T09:08:10;99673.88;;;11.70;100.00
49723;BME280;43484;43.608;1.458;2023-03-22T09:10:45;99670.84;;;11.89;100.00
49723;BME280;43484;43.608;1.458;2023-03-22T09:13:16;99666.03;;;12.04;100.00
49723;BME280;43484;43.608;1.458;2023-03-22T09:15:46;99678.53;;;12.28;100.00
49723;BME280;43484;43.608;1.458;2023-03-22T09:18:13;99685.81;;;12.50;100.00
49723;BME280;43484;43.608;1.458;2023-03-22T09:20:41;99685.28;;;12.68;100.00
49723;BME280;43484;43.608;1.458;2023-03-22T09:23:09;99678.66;;;12.80;100.00
49723;BME280;43484;43.608;1.458;2023-03-22T09:25:35;99686.69;;;12.98;100.00
49723;BME280;43484;43.608;1.458;2023-03-22T09:28:02;99694.44;;;13.00;100.00
49723;BME280;43484;43.608;1.458;2023-03-22T09:30:29;99694.56;;;13.04;100.00
49723;BME280;43484;43.608;1.458;2023-03-22T09:32:56;99693.13;;;13.21;100.00
49723;BME280;43484;43.608;1.458;2023-03-22T09:35:22;99699.31;;;13.32;100.00
49723;BME280;43484;43.608;1.458;2023-03-22T09:37:49;99690.00;;;13.40;100.00
49723;BME280;43484;43.608;1.458;2023-03-22T09:40:20;99690.97;;;13.47;100.00
49723;BME280;43484;43.608;1.458;2023-03-22T09:42:51;99691.81;;;13.44;100.00
49723;BME280;43484;43.608;1.458;2023-03-22T09:45:22;99698.00;;;13.58;100.00
49723;BME280;43484;43.608;1.458;2023-03-22T09:47:57;99692.81;;;13.54;100.00
49723;BME280;43484;43.608;1.458;2023-03-22T09:50:27;99688.47;;;13.51;100.00
49723;BME280;43484;43.608;1.458;2023-03-22T09:52:55;99681.03;;;13.68;100.00
49723;BME280;43484;43.608;1.458;2023-03-22T09:56:29;99672.47;;;13.72;100.00
49723;BME280;43484;43.608;1.458;2023-03-22T09:58:49;99672.47;;;13.70;100.00
49723;BME280;43484;43.608;1.458;2023-03-22T10:01:29;99676.81;;;13.73;100.00
49723;BME280;43484;43.608;1.458;2023-03-22T10:07:10;99672.78;;;13.93;100.00
49723;BME280;43484;43.608;1.458;2023-03-22T10:12:30;99675.44;;;13.99;100.00
49723;BME280;43484;43.608;1.458;2023-03-22T10:15:10;99676.34;;;14.03;100.00
49723;BME280;43484;43.608;1.458;2023-03-22T10:17:41;99675.75;;;14.23;100.00
49723;BME280;43484;43.608;1.458;2023-03-22T10:20:20;99668.03;;;14.25;100.00
49723;BME280;43484;43.608;1.458;2023-03-22T10:22:49;99666.53;;;14.42;100.00
49723;BME280;43484;43.608;1.458;2023-03-22T10:25:22;99668.31;;;14.47;100.00
49723;BME280;43484;43.608;1.458;2023-03-22T10:27:50;99671.91;;;14.58;100.00
49723;BME280;43484;43.608;1.458;2023-03-22T10:30:22;99671.00;;;14.56;100.00
49723;BME280;43484;43.608;1.458;2023-03-22T10:33:01;99671.91;;;14.58;100.00
49723;BME280;43484;43.608;1.458;2023-03-22T10:35:29;99664.25;;;14.69;100.00
49723;BME280;43484;43.608;1.458;2023-03-22T10:37:59;99668.59;;;14.71;100.00
49723;BME280;43484;43.608;1.458;2023-03-22T10:40:33;99663.66;;;14.95;100.00
49723;BME280;43484;43.608;1.458;2023-03-22T10:43:39;99675.97;;;15.25;100.00
49723;BME280;43484;43.608;1.458;2023-03-22T10:46:13;99663.22;;;15.43;100.00
49723;BME280;43484;43.608;1.458;2023-03-22T10:48:44;99672.81;;;15.59;100.00
49723;BME280;43484;43.608;1.458;2023-03-22T10:51:48;99668.59;;;15.70;100.00
49723;BME280;43484;43.608;1.458;2023-03-22T10:54:24;99672.91;;;15.76;100.00
49723;BME280;43484;43.608;1.458;2023-03-22T10:56:51;99662.56;;;15.71;100.00
49723;BME280;43484;43.608;1.458;2023-03-22T10:59:40;99661.75;;;15.84;100.00
49723;BME280;43484;43.608;1.458;2023-03-22T11:02:29;99672.19;;;15.99;100.00
49723;BME280;43484;43.608;1.458;2023-03-22T11:05:01;99667.00;;;16.01;100.00
49723;BME280;43484;43.608;1.458;2023-03-22T11:07:44;99667.94;;;16.09;100.00
49723;BME280;43484;43.608;1.458;2023-03-22T11:10:18;99662.78;;;16.15;100.00
49723;BME280;43484;43.608;1.458;2023-03-22T11:12:52;99662.84;;;16.30;100.00
49723;BME280;43484;43.608;1.458;2023-03-22T11:17:46;99655.22;;;16.62;100.00
49723;BME280;43484;43.608;1.458;2023-03-22T11:20:15;99655.25;;;16.80;100.00
49723;BME280;43484;43.608;1.458;2023-03-22T11:22:44;99654.41;;;16.91;100.00
49723;BME280;43484;43.608;1.458;2023-03-22T11:25:26;99651.84;;;16.99;100.00
49723;BME280;43484;43.608;1.458;2023-03-22T11:30:30;99650.97;;;17.15;100.00
49723;BME280;43484;43.608;1.458;2023-03-22T11:33:08;99642.34;;;17.23;100.00
49723;BME280;43484;43.608;1.458;2023-03-22T11:35:43;99636.31;;;17.39;100.00
49723;BME280;43484;43.608;1.458;2023-03-22T11:38:35;99638.03;;;17.54;100.00
49723;BME280;43484;43.608;1.458;2023-03-22T11:41:07;99625.06;;;17.66;100.00
49723;BME280;43484;43.608;1.458;2023-03-22T11:43:43;99622.47;;;17.65;100.00
49723;BME280;43484;43.608;1.458;2023-03-22T11:46:15;99623.31;;;17.64;100.00
49723;BME280;43484;43.608;1.458;2023-03-22T11:48:45;99617.28;;;17.69;100.00
49723;BME280;43484;43.608;1.458;2023-03-22T11:51:46;99618.13;;;17.73;100.00
49723;BME280;43484;43.608;1.458;2023-03-22T11:56:44;99612.06;;;17.75;100.00
49723;BME280;43484;43.608;1.458;2023-03-22T11:59:14;99602.53;;;17.88;100.00
49723;BME280;43484;43.608;1.458;2023-03-22T12:04:31;99594.72;;;17.98;100.00
49723;BME280;43484;43.608;1.458;2023-03-22T12:07:03;99591.25;;;17.98;100.00
49723;BME280;43484;43.608;1.458;2023-03-22T12:09:37;99586.91;;;18.03;100.00
49723;BME280;43484;43.608;1.458;2023-03-22T12:12:20;99579.13;;;18.06;100.00
49723;BME280;43484;43.608;1.458;2023-03-22T12:20:33;99563.53;;;18.10;100.00
49723;BME280;43484;43.608;1.458;2023-03-22T12:23:12;99565.22;;;18.17;100.00
49723;BME280;43484;43.608;1.458;2023-03-22T12:25:45;99559.13;;;18.29;100.00
49723;BME280;43484;43.608;1.458;2023-03-22T12:28:17;99559.97;;;18.32;100.00
49723;BME280;43484;43.608;1.458;2023-03-22T12:30:51;99553.91;;;18.33;100.00
49723;BME280;43484;43.608;1.458;2023-03-22T12:33:25;99554.69;;;18.49;100.00
49723;BME280;43484;43.608;1.458;2023-03-22T12:36:02;99550.22;;;18.67;100.00
49723;BME280;43484;43.608;1.458;2023-03-22T12:41:04;99544.97;;;18.77;92.62
49723;BME280;43484;43.608;1.458;2023-03-22T12:46:17;99527.53;;;18.94;90.88
49723;BME280;43484;43.608;1.458;2023-03-22T12:48:48;99531.75;;;19.07;93.39
49723;BME280;43484;43.608;1.458;2023-03-22T12:51:16;99522.81;;;19.35;91.06
49723;BME280;43484;43.608;1.458;2023-03-22T12:53:49;99520.09;;;19.47;88.87
49723;BME280;43484;43.608;1.458;2023-03-22T12:56:25;99514.78;;;19.54;94.66
49723;BME280;43484;43.608;1.458;2023-03-22T12:59:00;99518.13;;;19.67;93.79
49723;BME280;43484;43.608;1.458;2023-03-22T13:01:50;99521.53;;;19.72;88.19
49723;BME280;43484;43.608;1.458;2023-03-22T13:14:57;99500.56;;;19.85;87.93
49723;BME280;43484;43.608;1.458;2023-03-22T13:22:27;99479.28;;;20.20;77.83
49723;BME280;43484;43.608;1.458;2023-03-22T13:33:07;99460.06;;;20.29;74.73
49723;BME280;43484;43.608;1.458;2023-03-22T13:38:26;99458.00;;;20.49;65.11
49723;BME280;43484;43.608;1.458;2023-03-22T13:43:30;99453.69;;;20.46;70.68
49723;BME280;43484;43.608;1.458;2023-03-22T13:59:00;99443.47;;;20.86;58.66
49723;BME280;43484;43.608;1.458;2023-03-22T14:01:34;99445.94;;;20.93;58.75
49723;BME280;43484;43.608;1.458;2023-03-22T14:04:10;99436.34;;;20.95;52.39
49723;BME280;43484;43.608;1.458;2023-03-22T14:07:17;99439.53;;;21.12;54.21
49723;BME280;43484;43.608;1.458;2023-03-22T14:10:15;99431.06;;;21.01;52.08
49723;BME280;43484;43.608;1.458;2023-03-22T14:12:56;99431.25;;;20.89;51.71
49723;BME280;43484;43.608;1.458;2023-03-22T14:15:27;99439.09;;;20.89;53.54
49723;BME280;43484;43.608;1.458;2023-03-22T14:18:02;99432.88;;;20.95;55.02
49723;BME280;43484;43.608;1.458;2023-03-22T14:20:34;99430.03;;;21.08;50.69
49723;BME280;43484;43.608;1.458;2023-03-22T14:23:06;99424.09;;;21.02;51.74
49723;BME280;43484;43.608;1.458;2023-03-22T14:25:33;99423.84;;;21.15;53.71
49723;BME280;43484;43.608;1.458;2023-03-22T14:28:00;99413.28;;;21.23;52.52
49723;BME280;43484;43.608;1.458;2023-03-22T14:32:54;99410.72;;;21.20;45.30
49723;BME280;43484;43.608;1.458;2023-03-22T14:35:41;99420.28;;;21.20;49.12
49723;BME280;43484;43.608;1.458;2023-03-22T14:38:13;99411.63;;;21.19;41.68
49723;BME280;43484;43.608;1.458;2023-03-22T14:40:40;99405.50;;;21.22;48.35
49723;BME280;43484;43.608;1.458;2023-03-22T14:43:12;99401.81;;;21.30;49.91
49723;BME280;43484;43.608;1.458;2023-03-22T14:45:39;99406.25;;;21.25;50.49
49723;BME280;43484;43.608;1.458;2023-03-22T14:48:19;99408.63;;;21.37;49.66
49723;BME280;43484;43.608;1.458;2023-03-22T14:50:49;99406.19;;;21.30;50.87
49723;BME280;43484;43.608;1.458;2023-03-22T14:53:17;99406.34;;;21.22;47.46
49723;BME280;43484;43.608;1.458;2023-03-22T14:55:46;99409.75;;;21.26;47.52
49723;BME280;43484;43.608;1.458;2023-03-22T14:58:15;99406.47;;;21.16;48.90
49723;BME280;43484;43.608;1.458;2023-03-22T15:00:41;99404.66;;;21.20;45.20
49723;BME280;43484;43.608;1.458;2023-03-22T15:03:11;99395.16;;;21.17;46.24